createdAt,value
2017-11-25T17:29:10.036Z,40.33
2017-11-25T17:31:39.844Z,40.51
2017-11-25T17:42:00.560Z,41.46
2017-11-25T17:44:29.815Z,41.00
2017-11-25T17:46:59.074Z,40.92
2017-11-25T17:49:28.188Z,41.01
2017-11-25T17:54:12.249Z,42.69
2017-11-25T17:56:41.209Z,44.40
2017-11-25T17:59:10.446Z,45.92
2017-11-25T18:01:39.695Z,44.86
2017-11-25T18:04:08.702Z,43.47
2017-11-25T18:06:37.746Z,44.91
2017-11-25T18:09:06.944Z,45.21
2017-11-25T18:11:36.163Z,43.34
2017-11-25T18:14:05.285Z,44.67
2017-11-25T18:16:34.169Z,42.93
2017-11-25T18:19:03.311Z,41.47
2017-11-25T18:21:32.603Z,42.02
2017-11-25T18:24:01.898Z,42.67
2017-11-25T18:26:30.925Z,43.18
2017-11-25T18:28:59.923Z,41.10
2017-11-25T18:31:29.710Z,42.76
2017-11-25T18:33:58.752Z,43.13
2017-11-25T18:36:27.912Z,43.28
2017-11-25T18:38:57.108Z,42.93
2017-11-25T18:41:26.522Z,42.21
2017-11-25T18:43:56.475Z,40.51
2017-11-25T18:46:25.624Z,40.71
2017-11-25T18:48:54.821Z,41.26
2017-11-25T18:51:23.853Z,41.38
2017-11-25T18:53:52.855Z,42.56
2017-11-25T18:56:22.823Z,42.02
2017-11-25T18:58:51.805Z,41.60
2017-11-25T19:01:21.615Z,41.00
2017-11-25T19:03:50.881Z,41.40
2017-11-25T19:06:19.994Z,42.68
2017-11-25T19:08:49.228Z,42.08
2017-11-25T19:11:18.485Z,42.46
2017-11-25T19:13:48.203Z,43.28
2017-11-25T19:16:17.522Z,42.53
2017-11-25T19:18:46.674Z,42.78
2017-11-25T19:21:15.844Z,42.79
2017-11-25T19:23:45.078Z,42.66
2017-11-25T19:26:14.090Z,43.72
2017-11-25T19:28:43.656Z,44.33
2017-11-25T19:31:12.971Z,42.87
2017-11-25T19:33:42.056Z,44.63
2017-11-25T19:36:11.210Z,42.95
2017-11-25T19:38:40.727Z,43.06
2017-11-25T19:41:10.131Z,43.03
2017-11-25T19:43:40.120Z,43.33
2017-11-25T19:46:09.505Z,43.38
2017-11-25T19:48:39.121Z,43.56
2017-11-25T19:51:08.186Z,43.86
2017-11-25T19:53:37.444Z,43.34
2017-11-25T19:56:06.513Z,43.96
2017-11-25T19:58:35.692Z,43.73
2017-11-25T20:01:04.831Z,44.71
2017-11-25T20:03:33.828Z,45.63
2017-11-25T20:06:03.072Z,44.43
2017-11-25T20:08:32.024Z,44.14
2017-11-25T20:11:01.381Z,44.98
2017-11-25T20:13:30.780Z,45.70
2017-11-25T20:15:59.923Z,45.64
2017-11-25T20:18:29.041Z,46.08
2017-11-25T20:20:58.264Z,45.84
2017-11-25T20:23:27.431Z,45.51
2017-11-25T20:25:56.443Z,45.09
2017-11-25T20:28:25.376Z,45.61
2017-11-25T20:30:54.237Z,45.30
2017-11-25T20:33:23.485Z,45.45
2017-11-25T20:35:52.546Z,46.28
2017-11-25T20:38:21.738Z,45.82
2017-11-25T20:40:50.870Z,46.01
2017-11-25T20:43:19.957Z,46.71
2017-11-25T20:45:49.350Z,47.92
2017-11-25T20:48:18.493Z,47.34
2017-11-25T20:50:47.714Z,46.62
2017-11-25T20:53:17.056Z,46.96
2017-11-25T20:55:46.057Z,47.54
2017-11-25T20:58:15.114Z,47.77
2017-11-25T21:00:44.345Z,47.69
2017-11-25T21:03:13.441Z,48.21
2017-11-25T21:05:44.531Z,47.66
2017-11-25T21:08:13.886Z,48.25
2017-11-25T21:10:44.081Z,48.63
2017-11-25T21:13:13.067Z,48.12
2017-11-25T21:15:42.362Z,48.03
2017-11-25T21:18:11.514Z,48.06
2017-11-25T21:20:40.522Z,47.91
2017-11-25T21:23:09.647Z,49.39
2017-11-25T21:25:38.870Z,50.12
2017-11-25T21:28:07.926Z,49.56
2017-11-25T21:30:37.056Z,49.43
2017-11-25T21:33:06.162Z,49.78
2017-11-25T21:35:35.039Z,51.34
2017-11-25T21:38:04.207Z,50.04
2017-11-25T21:40:33.517Z,50.82
2017-11-25T21:43:02.481Z,50.49
2017-11-25T21:45:31.539Z,51.71
2017-11-25T21:48:00.755Z,50.69
2017-11-25T21:50:29.782Z,51.26
2017-11-25T21:52:59.045Z,51.24
2017-11-25T21:55:28.264Z,51.57
2017-11-25T21:57:57.283Z,51.31
2017-11-25T22:00:26.674Z,52.31
2017-11-25T22:02:55.983Z,52.28
2017-11-25T22:05:25.358Z,52.32
2017-11-25T22:07:54.389Z,52.58
2017-11-25T22:10:23.622Z,52.53
2017-11-25T22:12:52.632Z,53.09
2017-11-25T22:15:21.779Z,53.70
2017-11-25T22:17:51.003Z,54.68
2017-11-25T22:20:20.306Z,55.01
2017-11-25T22:22:49.434Z,56.21
2017-11-25T22:25:18.673Z,56.20
2017-11-25T22:27:47.896Z,55.00
2017-11-25T22:30:16.933Z,56.06
2017-11-25T22:32:46.153Z,56.29
2017-11-25T22:35:15.197Z,57.53
2017-11-25T22:37:44.495Z,57.72
2017-11-25T22:40:14.075Z,57.86
2017-11-25T22:42:43.332Z,58.29
2017-11-25T22:45:12.720Z,58.28
2017-11-25T22:47:42.152Z,59.09
2017-11-25T22:50:11.385Z,60.03
2017-11-25T22:52:40.483Z,61.08
2017-11-25T22:55:09.585Z,62.18
2017-11-25T22:57:38.676Z,63.13
2017-11-25T23:00:08.232Z,65.29
2017-11-25T23:02:37.908Z,66.88
2017-11-25T23:05:07.198Z,66.91
2017-11-25T23:07:36.617Z,66.40
2017-11-25T23:10:05.796Z,67.26
2017-11-25T23:12:34.895Z,66.93
2017-11-25T23:15:03.909Z,66.10
2017-11-25T23:17:33.122Z,69.01
2017-11-25T23:20:02.230Z,69.91
2017-11-25T23:22:31.414Z,72.30
2017-11-25T23:25:00.759Z,72.26
2017-11-25T23:27:30.164Z,72.64
2017-11-25T23:29:59.893Z,73.84
2017-11-25T23:32:29.040Z,74.66
2017-11-25T23:34:58.156Z,75.10
2017-11-25T23:37:27.528Z,75.54
2017-11-25T23:39:56.580Z,76.83
2017-11-25T23:42:25.820Z,76.38
2017-11-25T23:44:54.907Z,76.70
2017-11-25T23:47:24.047Z,77.62
2017-11-25T23:49:53.168Z,78.96
2017-11-25T23:52:22.300Z,79.30
2017-11-25T23:54:51.409Z,79.67
2017-11-25T23:57:20.791Z,79.62
2017-11-25T23:59:49.811Z,79.60
